createdAt,value
2022-09-07T00:00:29.754Z,100.00
2022-09-07T00:02:59.576Z,100.00
2022-09-07T00:05:30.176Z,100.00
2022-09-07T00:08:00.912Z,100.00
2022-09-07T00:10:31.977Z,100.00
2022-09-07T00:13:01.663Z,100.00
2022-09-07T00:15:31.412Z,100.00
2022-09-07T00:18:01.540Z,100.00
2022-09-07T00:20:31.198Z,100.00
2022-09-07T00:23:00.908Z,100.00
2022-09-07T00:25:32.252Z,100.00
2022-09-07T00:28:02.004Z,100.00
2022-09-07T00:30:31.883Z,100.00
2022-09-07T00:33:01.656Z,100.00
2022-09-07T00:35:31.248Z,100.00
2022-09-07T00:38:00.850Z,100.00
2022-09-07T00:40:31.817Z,100.00
2022-09-07T00:43:01.720Z,100.00
2022-09-07T00:45:31.426Z,100.00
2022-09-07T00:48:07.457Z,100.00
2022-09-07T01:55:18.660Z,100.00
2022-09-07T01:57:56.499Z,100.00
2022-09-07T02:00:26.710Z,100.00
2022-09-07T02:03:04.066Z,100.00
2022-09-07T02:05:41.165Z,100.00
2022-09-07T02:08:15.476Z,100.00
2022-09-07T02:10:55.825Z,100.00
2022-09-07T02:13:35.432Z,100.00
2022-09-07T02:17:19.142Z,100.00
2022-09-07T02:24:38.257Z,100.00
2022-09-07T02:29:02.222Z,100.00
2022-09-07T02:31:32.385Z,100.00
2022-09-07T02:34:03.067Z,100.00
2022-09-07T02:36:41.036Z,100.00
2022-09-07T02:39:11.020Z,100.00
2022-09-07T02:41:43.983Z,100.00
2022-09-07T02:44:20.852Z,100.00
2022-09-07T02:47:15.227Z,100.00
2022-09-07T02:50:30.682Z,100.00
2022-09-07T02:53:33.726Z,100.00
2022-09-07T02:56:23.369Z,100.00
2022-09-07T02:59:07.653Z,100.00
2022-09-07T03:02:52.126Z,100.00
2022-09-07T03:14:16.567Z,100.00
2022-09-07T03:16:50.703Z,100.00
2022-09-07T03:19:20.797Z,100.00
2022-09-07T03:21:50.543Z,100.00
2022-09-07T03:24:20.702Z,100.00
2022-09-07T03:26:51.938Z,100.00
2022-09-07T03:29:21.827Z,100.00
2022-09-07T03:31:52.904Z,100.00
2022-09-07T03:34:22.727Z,100.00
2022-09-07T03:36:52.471Z,100.00
2022-09-07T03:39:23.851Z,100.00
2022-09-07T03:41:53.671Z,100.00
2022-09-07T03:44:23.639Z,100.00
2022-09-07T03:46:54.755Z,100.00
2022-09-07T03:49:24.571Z,100.00
2022-09-07T03:51:54.339Z,100.00
2022-09-07T03:54:24.138Z,100.00
2022-09-07T03:56:53.953Z,100.00
2022-09-07T03:59:23.616Z,100.00
2022-09-07T04:01:54.810Z,100.00
2022-09-07T04:04:24.558Z,100.00
2022-09-07T04:06:54.358Z,100.00
2022-09-07T04:09:24.072Z,100.00
2022-09-07T04:11:53.898Z,100.00
2022-09-07T04:14:23.942Z,100.00
2022-09-07T04:16:55.104Z,100.00
2022-09-07T04:19:25.127Z,100.00
2022-09-07T04:21:55.182Z,100.00
2022-09-07T04:24:24.890Z,100.00
2022-09-07T04:26:54.548Z,100.00
2022-09-07T04:29:24.362Z,100.00
2022-09-07T04:31:55.526Z,100.00
2022-09-07T04:34:25.452Z,100.00
2022-09-07T04:36:55.152Z,100.00
2022-09-07T04:39:25.134Z,100.00
2022-09-07T04:41:55.031Z,100.00
2022-09-07T04:44:24.724Z,100.00
2022-09-07T04:46:55.863Z,100.00
2022-09-07T04:49:25.555Z,100.00
2022-09-07T04:51:55.394Z,100.00
2022-09-07T04:54:26.494Z,100.00
2022-09-07T04:56:56.171Z,100.00
2022-09-07T04:59:25.916Z,100.00
2022-09-07T05:01:57.315Z,100.00
2022-09-07T05:04:27.087Z,100.00
2022-09-07T05:06:57.070Z,100.00
2022-09-07T05:09:26.729Z,100.00
2022-09-07T05:11:56.544Z,100.00
2022-09-07T05:14:26.945Z,100.00
2022-09-07T05:16:58.192Z,100.00
2022-09-07T05:19:28.094Z,100.00
2022-09-07T05:21:59.418Z,100.00
2022-09-07T05:24:29.311Z,100.00
2022-09-07T05:27:01.732Z,100.00
2022-09-07T05:32:22.828Z,100.00
2022-09-07T05:34:53.618Z,100.00
2022-09-07T05:37:24.083Z,100.00
2022-09-07T05:39:56.914Z,100.00
2022-09-07T05:42:26.813Z,100.00
2022-09-07T05:44:56.579Z,100.00
2022-09-07T05:47:27.906Z,100.00
2022-09-07T05:49:57.768Z,100.00
2022-09-07T05:52:27.694Z,100.00
2022-09-07T05:55:07.769Z,100.00
2022-09-07T05:57:47.370Z,100.00
2022-09-07T06:00:17.686Z,100.00
2022-09-07T06:02:49.104Z,100.00
2022-09-07T06:05:18.904Z,100.00
2022-09-07T06:07:49.224Z,100.00
2022-09-07T06:13:09.526Z,100.00
2022-09-07T06:15:39.192Z,100.00
2022-09-07T06:18:10.136Z,100.00
2022-09-07T06:20:39.769Z,100.00
2022-09-07T06:23:09.363Z,100.00
2022-09-07T06:25:38.938Z,100.00
2022-09-07T06:28:08.486Z,100.00
2022-09-07T06:30:38.057Z,100.00
2022-09-07T06:33:09.065Z,100.00
2022-09-07T06:35:38.616Z,100.00
2022-09-07T06:38:08.230Z,100.00
2022-09-07T06:40:37.794Z,100.00
2022-09-07T06:43:07.328Z,100.00
2022-09-07T06:45:36.975Z,100.00
2022-09-07T06:48:06.632Z,100.00
2022-09-07T06:50:38.306Z,100.00
2022-09-07T06:55:57.749Z,100.00
2022-09-07T06:58:28.645Z,100.00
2022-09-07T07:00:58.408Z,100.00
2022-09-07T07:03:29.642Z,100.00
2022-09-07T07:06:00.720Z,100.00
2022-09-07T07:08:30.535Z,100.00
2022-09-07T07:11:05.223Z,100.00
2022-09-07T07:13:35.809Z,100.00
2022-09-07T07:16:07.206Z,100.00
2022-09-07T07:18:37.770Z,100.00
2022-09-07T07:21:11.835Z,100.00
2022-09-07T07:23:42.508Z,100.00
2022-09-07T07:26:16.396Z,100.00
2022-09-07T07:29:03.718Z,100.00
2022-09-07T07:31:35.023Z,100.00
2022-09-07T07:34:04.691Z,100.00
2022-09-07T07:36:36.029Z,100.00
2022-09-07T07:39:06.703Z,100.00
2022-09-07T07:44:26.017Z,100.00
2022-09-07T07:46:55.656Z,100.00
2022-09-07T07:49:25.556Z,100.00
2022-09-07T07:54:46.877Z,100.00
2022-09-07T07:57:18.934Z,100.00
2022-09-07T07:59:48.460Z,100.00
2022-09-07T08:02:18.784Z,100.00
2022-09-07T08:04:48.387Z,100.00
2022-09-07T08:07:19.825Z,100.00
2022-09-07T08:09:49.986Z,100.00
2022-09-07T08:12:21.295Z,100.00
2022-09-07T08:14:51.007Z,100.00
2022-09-07T08:17:20.628Z,100.00
2022-09-07T08:19:50.962Z,100.00
2022-09-07T08:22:21.705Z,100.00
2022-09-07T08:24:51.345Z,100.00
2022-09-07T08:27:21.100Z,100.00
2022-09-07T08:29:51.540Z,100.00
2022-09-07T08:32:20.972Z,100.00
2022-09-07T08:34:50.325Z,100.00
2022-09-07T08:37:21.341Z,100.00
2022-09-07T08:39:50.743Z,100.00
2022-09-07T08:42:47.541Z,100.00
2022-09-07T08:45:27.350Z,100.00
2022-09-07T08:47:57.037Z,100.00
2022-09-07T08:50:34.689Z,100.00
2022-09-07T08:53:14.031Z,100.00
2022-09-07T08:55:52.861Z,100.00
2022-09-07T08:58:48.097Z,100.00
2022-09-07T09:01:36.700Z,100.00
2022-09-07T09:04:17.846Z,100.00
2022-09-07T09:07:06.888Z,100.00
2022-09-07T09:10:13.811Z,100.00
2022-09-07T09:13:03.432Z,100.00
2022-09-07T09:15:51.737Z,100.00
2022-09-07T09:18:48.808Z,100.00
2022-09-07T09:21:20.604Z,100.00
2022-09-07T09:23:55.021Z,100.00
2022-09-07T09:26:28.899Z,100.00
2022-09-07T09:28:58.783Z,100.00
2022-09-07T09:31:36.526Z,100.00
2022-09-07T09:34:13.705Z,100.00
2022-09-07T09:36:48.853Z,100.00
2022-09-07T09:39:36.569Z,100.00
2022-09-07T09:42:24.805Z,100.00
2022-09-07T09:45:04.153Z,100.00
2022-09-07T09:47:36.914Z,100.00
2022-09-07T09:52:28.892Z,100.00
2022-09-07T09:53:24.883Z,100.00
2022-09-07T09:55:55.154Z,100.00
2022-09-07T10:01:33.532Z,100.00
2022-09-07T10:04:32.927Z,100.00
2022-09-07T10:07:18.440Z,100.00
2022-09-07T10:09:53.632Z,100.00
2022-09-07T10:12:30.381Z,100.00
2022-09-07T10:15:03.445Z,100.00
2022-09-07T10:17:37.708Z,100.00
2022-09-07T10:20:36.481Z,100.00
2022-09-07T10:23:20.860Z,100.00
2022-09-07T10:25:51.082Z,100.00
2022-09-07T10:28:23.918Z,100.00
2022-09-07T10:31:17.824Z,100.00
2022-09-07T10:37:03.314Z,100.00
2022-09-07T10:39:37.983Z,100.00
2022-09-07T10:42:26.277Z,100.00
2022-09-07T10:45:09.184Z,100.00
2022-09-07T10:47:56.051Z,100.00
2022-09-07T10:50:33.832Z,100.00
2022-09-07T10:53:46.610Z,100.00
2022-09-07T10:56:25.544Z,100.00
2022-09-07T10:59:11.566Z,100.00
2022-09-07T11:01:55.758Z,100.00
2022-09-07T11:04:57.094Z,100.00
2022-09-07T11:07:54.520Z,100.00
2022-09-07T11:10:39.541Z,100.00
2022-09-07T11:13:15.512Z,100.00
2022-09-07T11:15:51.849Z,100.00
2022-09-07T11:18:29.170Z,100.00
2022-09-07T11:21:03.562Z,100.00
2022-09-07T11:23:41.406Z,100.00
2022-09-07T11:26:18.664Z,100.00
2022-09-07T11:31:49.784Z,100.00
2022-09-07T11:34:25.839Z,100.00
2022-09-07T11:37:04.150Z,100.00
2022-09-07T11:39:42.491Z,100.00
2022-09-07T11:45:21.155Z,93.05
2022-09-07T11:47:59.114Z,93.46
2022-09-07T11:50:34.869Z,87.77
2022-09-07T11:53:14.197Z,90.81
2022-09-07T11:55:49.545Z,91.73
2022-09-07T11:58:49.364Z,86.85
2022-09-07T12:01:35.233Z,84.31
2022-09-07T12:04:40.248Z,86.78
2022-09-07T12:07:33.514Z,79.76
2022-09-07T12:10:35.650Z,86.06
2022-09-07T12:13:41.188Z,74.53
2022-09-07T12:16:19.493Z,78.13
2022-09-07T12:19:19.840Z,81.62
2022-09-07T12:21:57.647Z,74.54
2022-09-07T12:24:45.818Z,75.12
2022-09-07T12:27:40.370Z,73.14
2022-09-07T12:31:00.414Z,72.99
2022-09-07T12:33:36.601Z,68.05
2022-09-07T12:36:47.761Z,68.11
2022-09-07T12:39:25.761Z,66.43
2022-09-07T12:42:38.941Z,69.03
2022-09-07T12:45:52.789Z,70.69
2022-09-07T12:48:50.851Z,71.13
2022-09-07T12:54:36.840Z,71.00
2022-09-07T12:57:30.145Z,72.22
2022-09-07T13:00:15.035Z,72.86
2022-09-07T13:09:35.466Z,76.37
2022-09-07T13:15:52.805Z,78.12
2022-09-07T13:18:44.377Z,79.36
2022-09-07T13:21:43.651Z,69.75
2022-09-07T13:24:47.339Z,63.84
2022-09-07T13:27:43.727Z,64.38
2022-09-07T13:30:37.327Z,68.42
2022-09-07T13:33:55.316Z,60.00
2022-09-07T13:36:40.214Z,54.67
2022-09-07T13:39:16.777Z,49.17
2022-09-07T13:41:54.261Z,54.73
2022-09-07T13:44:28.528Z,53.64
2022-09-07T13:47:20.181Z,51.31
2022-09-07T13:50:16.678Z,53.35
2022-09-07T13:53:51.837Z,51.96
2022-09-07T13:56:37.687Z,52.22
2022-09-07T13:59:27.749Z,50.75
2022-09-07T14:01:58.880Z,50.75
2022-09-07T14:04:35.367Z,49.86
2022-09-07T14:07:07.821Z,50.24
2022-09-07T14:09:37.240Z,48.44
2022-09-07T14:12:16.881Z,48.72
2022-09-07T14:14:46.747Z,50.90
2022-09-07T14:17:20.222Z,52.20
2022-09-07T14:19:51.497Z,52.22
2022-09-07T14:22:28.262Z,52.33
2022-09-07T14:25:01.292Z,53.86
2022-09-07T14:27:36.867Z,52.49
2022-09-07T14:30:28.094Z,56.93
2022-09-07T14:33:03.020Z,55.38
2022-09-07T14:35:36.244Z,55.38
2022-09-07T14:39:04.013Z,51.16
2022-09-07T14:41:14.672Z,48.11
2022-09-07T14:43:56.141Z,45.98
2022-09-07T14:46:28.909Z,46.65
2022-09-07T14:49:01.660Z,43.60
2022-09-07T14:51:37.189Z,46.34
2022-09-07T14:54:10.080Z,47.27
2022-09-07T14:56:42.656Z,44.97
2022-09-07T14:59:34.209Z,44.45
2022-09-07T15:02:37.732Z,44.66
2022-09-07T15:05:29.227Z,44.81
2022-09-07T15:08:01.455Z,45.76
2022-09-07T15:10:41.234Z,44.45
2022-09-07T15:13:34.155Z,47.14
2022-09-07T15:16:06.481Z,46.00
2022-09-07T15:18:57.129Z,46.55
2022-09-07T15:21:30.442Z,44.54
2022-09-07T15:24:02.429Z,45.71
2022-09-07T15:29:32.378Z,46.37
2022-09-07T15:32:04.691Z,46.38
2022-09-07T15:34:34.783Z,46.38
2022-09-07T15:38:01.241Z,46.18
2022-09-07T15:39:54.835Z,48.00
2022-09-07T15:45:16.392Z,51.04
2022-09-07T15:47:52.218Z,51.91
2022-09-07T15:50:47.280Z,50.95
2022-09-07T15:56:07.549Z,50.47
2022-09-07T15:58:38.286Z,52.22
2022-09-07T16:03:59.611Z,58.62
2022-09-07T16:06:29.521Z,60.29
2022-09-07T16:08:58.905Z,59.38
2022-09-07T16:11:29.721Z,61.17
2022-09-07T16:14:03.759Z,62.01
2022-09-07T16:19:23.503Z,68.84
2022-09-07T16:21:57.178Z,71.14
2022-09-07T16:24:28.230Z,72.16
2022-09-07T16:26:57.655Z,73.21
2022-09-07T16:29:28.551Z,75.43
2022-09-07T16:34:47.292Z,76.72
2022-09-07T16:37:16.851Z,79.88
2022-09-07T16:39:46.241Z,83.05
2022-09-07T16:42:15.755Z,85.25
2022-09-07T16:44:46.617Z,89.58
2022-09-07T16:47:16.048Z,92.83
2022-09-07T16:49:45.465Z,96.47
2022-09-07T16:52:14.878Z,98.64
2022-09-07T16:54:44.287Z,100.00
2022-09-07T16:57:15.607Z,100.00
2022-09-07T16:59:46.375Z,100.00
2022-09-07T17:02:18.337Z,100.00
2022-09-07T17:04:48.076Z,100.00
2022-09-07T17:07:17.513Z,100.00
2022-09-07T17:09:47.053Z,100.00
2022-09-07T17:12:16.419Z,100.00
2022-09-07T17:14:47.242Z,100.00
2022-09-07T17:17:17.178Z,100.00
2022-09-07T17:19:46.941Z,100.00
2022-09-07T17:22:16.511Z,100.00
2022-09-07T17:24:46.448Z,100.00
2022-09-07T17:27:16.168Z,100.00
2022-09-07T17:29:46.894Z,100.00
2022-09-07T17:32:31.739Z,100.00
2022-09-07T17:35:01.274Z,100.00
2022-09-07T17:37:30.868Z,100.00
2022-09-07T17:40:00.406Z,100.00
2022-09-07T17:45:21.214Z,100.00
2022-09-07T17:47:50.555Z,100.00
2022-09-07T17:50:19.942Z,100.00
2022-09-07T17:52:52.681Z,100.00
2022-09-07T17:55:22.694Z,100.00
2022-09-07T17:57:52.052Z,100.00
2022-09-07T18:00:22.933Z,100.00
2022-09-07T18:02:52.372Z,100.00
2022-09-07T18:05:21.781Z,100.00
2022-09-07T18:07:51.118Z,100.00
2022-09-07T18:10:20.528Z,100.00
2022-09-07T18:12:49.969Z,100.00
2022-09-07T18:15:22.050Z,100.00
2022-09-07T18:17:53.146Z,100.00
2022-09-07T18:20:24.146Z,100.00
2022-09-07T18:22:54.039Z,100.00
2022-09-07T18:25:24.514Z,100.00
2022-09-07T18:30:43.657Z,100.00
2022-09-07T18:33:14.743Z,100.00
2022-09-07T18:35:46.903Z,100.00
2022-09-07T18:38:16.323Z,100.00
2022-09-07T18:40:47.967Z,100.00
2022-09-07T18:43:17.422Z,100.00
2022-09-07T18:45:46.891Z,100.00
2022-09-07T18:48:18.077Z,100.00
2022-09-07T18:50:54.949Z,100.00
2022-09-07T18:53:24.326Z,100.00
2022-09-07T18:55:53.745Z,100.00
2022-09-07T18:58:24.415Z,100.00
2022-09-07T19:00:58.195Z,100.00
2022-09-07T19:03:29.215Z,100.00
2022-09-07T19:06:00.133Z,100.00
2022-09-07T19:08:32.833Z,100.00
2022-09-07T19:11:07.626Z,100.00
2022-09-07T19:13:38.561Z,100.00
2022-09-07T19:16:13.240Z,100.00
2022-09-07T19:18:49.579Z,100.00
2022-09-07T19:21:23.470Z,100.00
2022-09-07T19:23:57.271Z,100.00
2022-09-07T19:26:29.476Z,100.00
2022-09-07T19:29:01.891Z,100.00
2022-09-07T19:31:32.469Z,100.00
2022-09-07T19:34:04.509Z,100.00
2022-09-07T19:36:35.068Z,100.00
2022-09-07T19:39:05.517Z,100.00
2022-09-07T19:41:35.304Z,100.00
2022-09-07T19:44:04.728Z,100.00
2022-09-07T19:46:34.231Z,100.00
2022-09-07T19:49:05.636Z,100.00
2022-09-07T19:51:36.851Z,100.00
2022-09-07T19:54:07.399Z,100.00
2022-09-07T19:56:39.619Z,100.00
2022-09-07T19:59:09.107Z,100.00
2022-09-07T20:01:40.478Z,100.00
2022-09-07T20:04:19.001Z,100.00
2022-09-07T20:06:50.509Z,100.00
2022-09-07T20:09:21.322Z,100.00
2022-09-07T20:11:50.875Z,100.00
2022-09-07T20:14:20.628Z,100.00
2022-09-07T20:16:50.197Z,100.00
2022-09-07T20:19:20.921Z,100.00
2022-09-07T20:21:55.535Z,100.00
2022-09-07T20:24:25.170Z,100.00
2022-09-07T20:26:54.647Z,100.00
2022-09-07T20:29:27.718Z,100.00
2022-09-07T20:31:59.783Z,100.00
2022-09-07T20:34:32.059Z,100.00
2022-09-07T20:37:02.065Z,100.00
2022-09-07T20:39:34.652Z,100.00
2022-09-07T20:42:08.819Z,100.00
2022-09-07T20:44:38.191Z,100.00
2022-09-07T20:47:07.732Z,100.00
2022-09-07T20:49:39.574Z,100.00
2022-09-07T20:52:08.931Z,100.00
2022-09-07T20:54:38.780Z,100.00
2022-09-07T20:57:08.189Z,100.00
2022-09-07T20:59:37.533Z,100.00
2022-09-07T21:02:07.111Z,100.00
2022-09-07T21:04:38.009Z,100.00
2022-09-07T21:07:07.377Z,100.00
2022-09-07T21:09:36.844Z,100.00
2022-09-07T21:12:06.557Z,100.00
2022-09-07T21:14:35.933Z,100.00
2022-09-07T21:17:05.606Z,100.00
2022-09-07T21:19:36.802Z,100.00
2022-09-07T21:22:07.545Z,100.00
2022-09-07T21:24:37.041Z,100.00
2022-09-07T21:27:07.634Z,100.00
2022-09-07T21:29:37.077Z,100.00
2022-09-07T21:32:06.829Z,100.00
2022-09-07T21:34:36.328Z,100.00
2022-09-07T21:37:07.118Z,100.00
2022-09-07T21:39:36.618Z,100.00
2022-09-07T21:42:06.273Z,100.00
2022-09-07T21:44:35.721Z,100.00
2022-09-07T21:47:05.397Z,100.00
2022-09-07T21:49:34.942Z,100.00
2022-09-07T21:52:04.707Z,100.00
2022-09-07T21:54:35.407Z,100.00
2022-09-07T21:57:05.389Z,100.00
2022-09-07T21:59:35.220Z,100.00
2022-09-07T22:02:05.488Z,100.00
2022-09-07T22:04:34.910Z,100.00
2022-09-07T22:07:04.285Z,100.00
2022-09-07T22:09:35.343Z,100.00
2022-09-07T22:12:05.397Z,100.00
2022-09-07T22:14:35.000Z,100.00
2022-09-07T22:17:04.405Z,100.00
2022-09-07T22:19:33.756Z,100.00
2022-09-07T22:22:03.163Z,100.00
2022-09-07T22:24:36.657Z,100.00
2022-09-07T22:27:07.363Z,100.00
2022-09-07T22:29:36.745Z,100.00
2022-09-07T22:32:06.301Z,100.00
2022-09-07T22:34:35.658Z,100.00
2022-09-07T22:37:05.116Z,100.00
2022-09-07T22:39:35.914Z,100.00
2022-09-07T22:42:05.933Z,100.00
2022-09-07T22:44:35.292Z,100.00
2022-09-07T22:47:04.994Z,100.00
2022-09-07T22:49:34.316Z,100.00
2022-09-07T22:52:04.340Z,100.00
2022-09-07T22:54:35.116Z,100.00
2022-09-07T22:57:05.239Z,100.00
2022-09-07T22:59:34.944Z,100.00
2022-09-07T23:02:05.084Z,100.00
2022-09-07T23:04:34.650Z,100.00
2022-09-07T23:07:06.539Z,100.00
2022-09-07T23:09:37.274Z,100.00
2022-09-07T23:12:07.272Z,100.00
2022-09-07T23:14:37.055Z,100.00
2022-09-07T23:17:06.543Z,100.00
2022-09-07T23:19:36.459Z,100.00
2022-09-07T23:22:07.747Z,100.00
2022-09-07T23:24:41.144Z,100.00
2022-09-07T23:27:10.485Z,100.00
2022-09-07T23:29:39.899Z,100.00
2022-09-07T23:32:09.300Z,100.00
2022-09-07T23:34:38.663Z,100.00
2022-09-07T23:37:08.124Z,100.00
2022-09-07T23:39:40.244Z,100.00
2022-09-07T23:42:09.765Z,100.00
2022-09-07T23:44:39.127Z,100.00
2022-09-07T23:47:08.688Z,100.00
2022-09-07T23:49:38.282Z,100.00
2022-09-07T23:52:07.813Z,100.00
2022-09-07T23:54:38.947Z,100.00
2022-09-07T23:57:08.326Z,100.00
2022-09-07T23:59:37.646Z,100.00
